Weather History for Melfa, VA

Change the Weather History Date:

Friday, March 8, 2013

  Actual Average (KWAL) Record (KWAL)
Temperature  
Mean Temperature 42 °F 43 °F  
Max Temperature 46 °F 52 °F 80 °F (2000)
Min Temperature 39 °F 34 °F 16 °F (1986)
Degree Days  
Heating Degree Days 22    
Month to date heating degree days  
Since 1 July heating degree days  
Cooling Degree Days 0    
Month to date cooling degree days  
Year to date cooling degree days  
Moisture  
Dew Point 28 °F    
Average Humidity 54    
Maximum Humidity 65    
Minimum Humidity 46    
Precipitation  
Precipitation 0.00 in 0.13 in 0.78 in (1998)
Month to date precipitation 0.99  
Year to date precipitation 6.79  
Sea Level Pressure  
Sea Level Pressure 30.10 in    
Wind  
Wind Speed 15 mph (NNW)    
Max Wind Speed 28 mph    
Max Gust Speed 40 mph    
Visibility 10 miles    
Events      
T = Trace of Precipitation, MM = Missing Value Source: NWS Daily Summary

Daily Weather History Graph

Daily Weather History Graph

Search for Another Location

Airport:

Trip Planner

Search our weather history database for the weather conditions in past years. The results will help you decide how hot, cold, wet, or windy it might be!

Date:

Astronomy

Mar. 08, 2013 Rise Set
Actual Time 6:24 AM EST 6:03 PM EST
Civil Twilight 5:58 AM EST 6:30 PM EST
Nautical Twilight 5:27 AM EST 7:00 PM EST
Astronomical Twilight 4:57 AM EST 7:30 PM EST
Moon 4:03 AM EST (3/8) 2:59 PM EST (3/8)
Length of Visible Light 12h 32m
Length of Day
11h 39m
Waning Crescent, 12% of the Moon is Illuminated
Mar 8
Waning Crescent
Mar 11
New
Mar 19
First Quarter
Mar 27
Full
Apr 3
Last Quarter

Hourly Weather History & Observations

Time (EST) Temp. Windchill Dew Point Humidity Pressure Visibility Wind Dir Wind Speed Gust Speed Precip Events Conditions
12:16 AM 42.8 °F 36.2 °F 26.6 °F 53% 30.09 in 10.0 mi NNW 12.7 mph 21.9 mph N/A   Clear
12:35 AM 42.8 °F 35.8 °F 26.6 °F 53% 30.09 in 10.0 mi NNW 13.8 mph 19.6 mph N/A   Scattered Clouds
12:55 AM 42.8 °F 37.0 °F 26.6 °F 53% 30.09 in 10.0 mi NNW 10.4 mph 19.6 mph N/A   Mostly Cloudy
1:15 AM 42.8 °F 34.3 °F 26.6 °F 53% 30.10 in 10.0 mi NNW 19.6 mph 27.6 mph N/A   Clear
1:35 AM 42.8 °F 36.2 °F 26.6 °F 53% 30.10 in 10.0 mi NW 12.7 mph 25.3 mph N/A   Clear
1:55 AM 42.8 °F 36.2 °F 26.6 °F 53% 30.09 in 10.0 mi NNW 12.7 mph 25.3 mph N/A   Clear
2:15 AM 41.0 °F 34.7 °F 26.6 °F 57% 30.08 in 10.0 mi NW 10.4 mph 21.9 mph N/A   Scattered Clouds
2:35 AM 42.8 °F 37.0 °F 24.8 °F 49% 30.08 in 10.0 mi NNW 10.4 mph 25.3 mph N/A   Mostly Cloudy
2:55 AM 42.8 °F 36.2 °F 26.6 °F 53% 30.07 in 10.0 mi NNW 12.7 mph 24.2 mph N/A   Overcast
3:15 AM 42.8 °F 37.5 °F 26.6 °F 53% 30.07 in 10.0 mi NNW 9.2 mph 23.0 mph N/A   Overcast
3:35 AM 42.8 °F 36.2 °F 28.4 °F 57% 30.07 in 10.0 mi NNW 12.7 mph 20.7 mph N/A   Overcast
3:55 AM 41.0 °F 33.5 °F 26.6 °F 57% 30.07 in 10.0 mi NNW 13.8 mph 26.5 mph N/A   Mostly Cloudy
4:15 AM 41.0 °F 33.1 °F 26.6 °F 57% 30.07 in 10.0 mi NNW 15.0 mph 25.3 mph N/A   Scattered Clouds
4:35 AM 41.0 °F 33.1 °F 26.6 °F 57% 30.08 in 10.0 mi NNW 15.0 mph 26.5 mph N/A   Scattered Clouds
4:55 AM 39.2 °F 30.8 °F 24.8 °F 56% 30.08 in 10.0 mi NNW 15.0 mph 27.6 mph N/A   Clear
5:15 AM 39.2 °F 30.8 °F 26.6 °F 61% 30.08 in 10.0 mi NNW 15.0 mph 23.0 mph N/A   Clear
5:35 AM 39.2 °F 32.0 °F 26.6 °F 61% 30.08 in 10.0 mi NNW 11.5 mph 25.3 mph N/A   Clear
5:55 AM 39.2 °F 30.8 °F 26.6 °F 61% 30.08 in 10.0 mi NNW 15.0 mph 23.0 mph N/A   Clear
6:15 AM 39.2 °F 31.6 °F 28.4 °F 65% 30.09 in 10.0 mi NNW 12.7 mph 20.7 mph N/A   Clear
6:35 AM 39.2 °F 29.8 °F 24.8 °F 56% 30.09 in 10.0 mi NNW 18.4 mph 33.4 mph N/A   Clear
6:55 AM 39.2 °F 30.8 °F 26.6 °F 61% 30.09 in 10.0 mi NNW 15.0 mph 25.3 mph N/A   Clear
7:15 AM 39.2 °F 29.8 °F 26.6 °F 61% 30.08 in 10.0 mi NNW 18.4 mph 28.8 mph N/A   Clear
7:35 AM 41.0 °F 32.8 °F 28.4 °F 61% 30.09 in 10.0 mi NW 16.1 mph 23.0 mph N/A   Scattered Clouds
7:55 AM 41.0 °F 33.1 °F 26.6 °F 57% 30.09 in 10.0 mi NW 15.0 mph 29.9 mph N/A   Mostly Cloudy
8:15 AM 41.0 °F 33.1 °F 28.4 °F 61% 30.09 in 10.0 mi NW 15.0 mph 28.8 mph N/A   Overcast
8:36 AM 41.0 °F 31.6 °F 24.8 °F 53% 30.10 in 10.0 mi NNW 20.7 mph 38.0 mph N/A   Overcast
8:55 AM 41.0 °F 30.9 °F 24.8 °F 53% 30.09 in 10.0 mi NNW 24.2 mph 40.3 mph N/A   Overcast
9:15 AM 42.8 °F 33.3 °F 24.8 °F 49% 30.09 in 10.0 mi NNW 24.2 mph 39.1 mph N/A   Overcast
9:35 AM 41.0 °F 31.6 °F 24.8 °F 53% 30.09 in 10.0 mi NNW 20.7 mph 32.2 mph N/A   Overcast
9:55 AM 41.0 °F 30.9 °F 24.8 °F 53% 30.09 in 10.0 mi NNW 24.2 mph 36.8 mph N/A   Overcast
10:15 AM 42.8 °F 34.5 °F 24.8 °F 49% 30.09 in 10.0 mi NNW 18.4 mph 33.4 mph N/A   Overcast
10:35 AM 42.8 °F 33.5 °F 24.8 °F 49% 30.09 in 10.0 mi NNW 23.0 mph 33.4 mph N/A   Overcast
10:55 AM 42.8 °F 35.1 °F 26.6 °F 53% 30.09 in 10.0 mi NNW 16.1 mph 34.5 mph N/A   Overcast
11:16 AM 42.8 °F 33.8 °F 26.6 °F 53% 30.09 in 10.0 mi NW 21.9 mph 33.4 mph N/A   Overcast
11:35 AM 42.8 °F 32.7 °F 26.6 °F 53% 30.09 in 10.0 mi NW 27.6 mph 36.8 mph N/A   Overcast
11:56 AM 44.6 °F 35.7 °F 28.4 °F 53% 30.09 in 10.0 mi NW 24.2 mph 33.4 mph N/A   Overcast
12:15 PM 44.6 °F 35.7 °F 26.6 °F 49% 30.09 in 10.0 mi NNW 24.2 mph 38.0 mph N/A   Overcast
12:35 PM 44.6 °F 35.9 °F 26.6 °F 49% 30.08 in 10.0 mi NW 23.0 mph 35.7 mph N/A   Overcast
12:55 PM 44.6 °F 36.1 °F 26.6 °F 49% 30.08 in 10.0 mi NNW 21.9 mph 32.2 mph N/A   Overcast
1:15 PM 44.6 °F 36.6 °F 26.6 °F 49% 30.07 in 10.0 mi NNW 19.6 mph 34.5 mph N/A   Overcast
1:35 PM 44.6 °F 35.9 °F 26.6 °F 49% 30.07 in 10.0 mi NNW 23.0 mph 36.8 mph N/A   Overcast
1:56 PM 44.6 °F 37.8 °F 26.6 °F 49% 30.07 in 10.0 mi NNW 15.0 mph 31.1 mph N/A   Overcast
2:15 PM 44.6 °F 36.6 °F 26.6 °F 49% 30.06 in 10.0 mi NNW 19.6 mph 27.6 mph N/A   Overcast
2:35 PM 46.4 °F 39.8 °F 26.6 °F 46% 30.07 in 10.0 mi NNW 16.1 mph 33.4 mph N/A   Overcast
2:55 PM 46.4 °F 40.4 °F 28.4 °F 50% 30.07 in 10.0 mi NNW 13.8 mph 26.5 mph N/A   Overcast
3:15 PM 46.4 °F 40.7 °F 28.4 °F 50% 30.07 in 10.0 mi NNW 12.7 mph 28.8 mph N/A   Overcast
3:35 PM 46.4 °F 39.2 °F 28.4 °F 50% 30.07 in 10.0 mi NNW 18.4 mph 28.8 mph N/A   Overcast
3:55 PM 46.4 °F 39.5 °F 28.4 °F 50% 30.07 in 10.0 mi NNW 17.3 mph 24.2 mph N/A   Overcast
4:15 PM 46.4 °F 39.2 °F 30.2 °F 53% 30.08 in 10.0 mi NNW 18.4 mph 26.5 mph N/A   Overcast
4:36 PM 46.4 °F 39.0 °F 28.4 °F 50% 30.09 in 10.0 mi NNW 19.6 mph 27.6 mph N/A   Overcast
4:55 PM 46.4 °F 39.2 °F 28.4 °F 50% 30.10 in 10.0 mi NNW 18.4 mph 31.1 mph N/A   Overcast
5:15 PM 46.4 °F 40.1 °F 28.4 °F 50% 30.10 in 10.0 mi NNW 15.0 mph 32.2 mph N/A   Overcast
5:35 PM 46.4 °F 40.4 °F 30.2 °F 53% 30.11 in 10.0 mi NNW 13.8 mph 24.2 mph N/A   Overcast
5:55 PM 46.4 °F 40.7 °F 30.2 °F 53% 30.12 in 10.0 mi NNW 12.7 mph 24.2 mph N/A   Overcast
6:15 PM 46.4 °F 39.5 °F 30.2 °F 53% 30.12 in 10.0 mi NNW 17.3 mph 24.2 mph N/A   Overcast
6:35 PM 46.4 °F 40.4 °F 32.0 °F 57% 30.13 in 10.0 mi NNW 13.8 mph 19.6 mph N/A   Overcast
6:55 PM 46.4 °F 40.1 °F 32.0 °F 57% 30.14 in 10.0 mi NNW 15.0 mph 21.9 mph N/A   Overcast
7:35 PM 46.4 °F 40.4 °F 32.0 °F 57% 30.15 in 10.0 mi NNW 13.8 mph 23.0 mph N/A   Overcast
7:55 PM 46.4 °F 40.7 °F 32.0 °F 57% 30.16 in 10.0 mi NNW 12.7 mph 21.9 mph N/A   Overcast
8:15 PM 46.4 °F 40.4 °F 30.2 °F 53% 30.16 in 10.0 mi NNW 13.8 mph 23.0 mph N/A   Overcast
8:35 PM 46.4 °F 40.4 °F 30.2 °F 53% 30.16 in 10.0 mi NNW 13.8 mph 27.6 mph N/A   Overcast
8:55 PM 46.4 °F 40.1 °F 30.2 °F 53% 30.17 in 10.0 mi NNW 15.0 mph 25.3 mph N/A   Overcast
9:18 PM 46.4 °F 40.1 °F 30.2 °F 53% 30.18 in 10.0 mi NNW 15.0 mph 25.3 mph N/A   Overcast
9:35 PM 46.4 °F 40.7 °F 30.2 °F 53% 30.18 in 10.0 mi NNW 12.7 mph 24.2 mph N/A   Overcast
9:56 PM 46.4 °F 41.5 °F 30.2 °F 53% 30.18 in 10.0 mi NNW 10.4 mph 24.2 mph N/A   Overcast
10:15 PM 46.4 °F 41.1 °F 30.2 °F 53% 30.18 in 10.0 mi North 11.5 mph 19.6 mph N/A   Overcast
10:35 PM 46.4 °F 41.1 °F 30.2 °F 53% 30.18 in 10.0 mi NNW 11.5 mph 19.6 mph N/A   Overcast
10:55 PM 46.4 °F 40.7 °F 30.2 °F 53% 30.19 in 10.0 mi NNW 12.7 mph 18.4 mph N/A   Overcast
11:15 PM 44.6 °F 39.7 °F 30.2 °F 57% 30.19 in 10.0 mi NNW 9.2 mph 20.7 mph N/A   Overcast
11:35 PM 44.6 °F 38.1 °F 30.2 °F 57% 30.18 in 10.0 mi NNW 13.8 mph 20.7 mph N/A   Mostly Cloudy
11:55 PM 44.6 °F 38.8 °F 30.2 °F 57% 30.19 in 10.0 mi North 11.5 mph 20.7 mph N/A   Overcast